createdAt,value
2018-08-14T00:00:25.251Z,19.55
2018-08-14T00:01:25.254Z,19.58
2018-08-14T00:03:18.163Z,19.51
2018-08-14T00:04:18.189Z,19.54
2018-08-14T00:06:11.268Z,19.59
2018-08-14T00:07:11.272Z,19.54
2018-08-14T00:09:04.198Z,19.58
2018-08-14T00:10:04.203Z,19.58
2018-08-14T00:11:57.259Z,19.61
2018-08-14T00:12:57.282Z,19.55
2018-08-14T00:14:50.215Z,19.56
2018-08-14T00:15:50.216Z,19.66
2018-08-14T00:17:43.127Z,19.69
2018-08-14T00:18:43.151Z,19.73
2018-08-14T00:20:36.081Z,19.76
2018-08-14T00:21:36.085Z,19.76
2018-08-14T00:23:29.001Z,19.73
2018-08-14T00:24:29.030Z,19.68
2018-08-14T00:26:21.959Z,19.65
2018-08-14T00:27:21.961Z,19.73
2018-08-14T00:29:15.104Z,19.69
2018-08-14T00:30:15.107Z,19.71
2018-08-14T00:32:08.020Z,19.69
2018-08-14T00:33:08.044Z,19.73
2018-08-14T00:35:01.125Z,19.66
2018-08-14T00:36:01.129Z,19.59
2018-08-14T00:37:54.043Z,19.66
2018-08-14T00:38:54.066Z,19.55
2018-08-14T00:40:47.232Z,19.65
2018-08-14T00:41:47.234Z,19.61
2018-08-14T00:43:40.367Z,19.58
2018-08-14T00:44:40.389Z,19.55
2018-08-14T00:46:33.318Z,19.56
2018-08-14T00:47:33.322Z,19.55
2018-08-14T00:49:26.400Z,19.69
2018-08-14T00:50:26.405Z,19.63
2018-08-14T00:52:19.316Z,19.71
2018-08-14T00:53:19.337Z,19.66
2018-08-14T00:55:12.402Z,19.59
2018-08-14T00:56:12.403Z,19.55
2018-08-14T00:58:05.318Z,19.66
2018-08-14T00:59:05.338Z,19.65
2018-08-14T01:00:58.416Z,19.69
2018-08-14T01:01:58.421Z,19.68
2018-08-14T01:03:51.331Z,19.69
2018-08-14T01:04:51.355Z,19.69
2018-08-14T01:06:44.432Z,19.68
2018-08-14T01:07:44.432Z,19.68
2018-08-14T01:09:37.591Z,19.73
2018-08-14T01:10:37.591Z,19.66
2018-08-14T01:12:30.725Z,19.68
2018-08-14T01:13:30.810Z,19.69
2018-08-14T01:15:23.906Z,19.73
2018-08-14T01:16:23.909Z,19.66
2018-08-14T01:18:16.889Z,19.71
2018-08-14T01:19:16.842Z,19.69
2018-08-14T01:21:10.017Z,19.73
2018-08-14T01:22:10.022Z,19.66
2018-08-14T01:24:03.155Z,19.77
2018-08-14T01:25:03.179Z,19.68
2018-08-14T01:26:56.113Z,19.74
2018-08-14T01:27:56.122Z,19.71
2018-08-14T01:29:49.057Z,19.68
2018-08-14T01:30:49.050Z,19.71
2018-08-14T01:32:41.963Z,19.69
2018-08-14T01:33:41.986Z,19.55
2018-08-14T01:35:34.948Z,19.58
2018-08-14T01:36:34.920Z,19.56
2018-08-14T01:38:28.025Z,19.55
2018-08-14T01:39:28.049Z,19.58
2018-08-14T01:41:20.980Z,19.54
2018-08-14T01:42:20.983Z,19.58
2018-08-14T01:44:14.044Z,19.55
2018-08-14T01:45:14.069Z,19.55
2018-08-14T01:47:07.009Z,19.59
2018-08-14T01:48:07.001Z,19.51
2018-08-14T01:50:00.104Z,19.56
2018-08-14T01:51:00.088Z,19.48
2018-08-14T01:52:53.210Z,19.54
2018-08-14T01:53:53.234Z,19.55
2018-08-14T01:55:46.391Z,19.47
2018-08-14T01:56:46.395Z,19.47
2018-08-14T01:58:39.308Z,19.47
2018-08-14T01:59:39.329Z,19.51
2018-08-14T02:01:32.260Z,19.44
2018-08-14T02:02:32.263Z,19.50
2018-08-14T02:04:25.182Z,19.39
2018-08-14T02:05:25.194Z,19.33
2018-08-14T02:07:18.137Z,19.31
2018-08-14T02:08:18.142Z,19.25
2018-08-14T02:10:11.079Z,19.26
2018-08-14T02:11:11.079Z,19.28
2018-08-14T02:13:04.198Z,19.19
2018-08-14T02:14:04.219Z,19.21
2018-08-14T02:15:57.145Z,19.16
2018-08-14T02:16:57.149Z,19.13
2018-08-14T02:18:50.058Z,19.10
2018-08-14T02:19:50.092Z,19.07
2018-08-14T02:21:43.183Z,18.98
2018-08-14T02:22:43.185Z,18.99
2018-08-14T02:24:36.096Z,19.02
2018-08-14T02:25:36.125Z,19.07
2018-08-14T02:27:29.105Z,18.99
2018-08-14T02:28:29.054Z,19.16
2018-08-14T02:30:22.172Z,19.19
2018-08-14T02:31:22.146Z,19.18
2018-08-14T02:33:15.280Z,19.23
2018-08-14T02:34:15.304Z,19.10
2018-08-14T02:36:08.235Z,19.21
2018-08-14T02:37:08.237Z,19.23
2018-08-14T02:39:01.302Z,19.23
2018-08-14T02:40:01.332Z,19.25
2018-08-14T02:41:54.258Z,19.28
2018-08-14T02:42:54.283Z,19.25
2018-08-14T02:44:47.169Z,19.32
2018-08-14T02:45:47.200Z,19.28
2018-08-14T02:47:40.124Z,19.25
2018-08-14T02:48:40.127Z,19.25
2018-08-14T02:50:33.232Z,19.29
2018-08-14T02:51:33.235Z,19.26
2018-08-14T02:53:26.146Z,19.25
2018-08-14T02:54:26.230Z,19.25
2018-08-14T02:56:19.096Z,19.25
2018-08-14T02:57:19.100Z,19.23
2018-08-14T02:59:12.012Z,19.25
2018-08-14T03:00:12.592Z,19.31
2018-08-14T03:02:04.968Z,19.29
2018-08-14T03:03:04.969Z,19.33
2018-08-14T03:04:58.090Z,19.43
2018-08-14T03:05:58.111Z,19.36
2018-08-14T03:07:51.047Z,19.31
2018-08-14T03:08:51.046Z,19.29
2018-08-14T03:10:44.138Z,19.25
2018-08-14T03:11:44.132Z,19.21
2018-08-14T03:13:37.048Z,19.36
2018-08-14T03:14:37.099Z,19.22
2018-08-14T03:16:30.222Z,19.25
2018-08-14T03:17:30.227Z,19.25
2018-08-14T03:19:23.142Z,19.25
2018-08-14T03:20:23.160Z,19.21
2018-08-14T03:22:16.245Z,19.11
2018-08-14T03:23:16.252Z,19.26
2018-08-14T03:25:09.378Z,19.36
2018-08-14T03:26:09.400Z,19.29
2018-08-14T03:28:02.326Z,19.32
2018-08-14T03:29:02.331Z,19.26
2018-08-14T03:30:55.404Z,19.31
2018-08-14T03:31:55.412Z,19.36
2018-08-14T03:33:48.324Z,19.32
2018-08-14T03:34:48.345Z,19.37
2018-08-14T03:36:41.418Z,19.32
2018-08-14T03:37:41.453Z,19.31
2018-08-14T03:39:34.552Z,19.33
2018-08-14T03:40:34.576Z,19.36
2018-08-14T03:42:27.508Z,19.40
2018-08-14T03:43:27.508Z,19.47
2018-08-14T03:45:20.915Z,19.37
2018-08-14T03:46:20.939Z,19.40
2018-08-14T03:48:14.052Z,19.41
2018-08-14T03:49:14.054Z,19.36
2018-08-14T03:51:07.220Z,19.43
2018-08-14T03:52:07.211Z,19.36
2018-08-14T03:54:00.118Z,19.51
2018-08-14T03:55:00.141Z,19.46
2018-08-14T03:56:53.072Z,19.54
2018-08-14T03:57:53.074Z,19.50
2018-08-14T03:59:45.988Z,19.55
2018-08-14T04:00:46.017Z,19.54
2018-08-14T04:02:38.943Z,19.48
2018-08-14T04:03:38.945Z,19.51
2018-08-14T04:05:31.856Z,19.51
2018-08-14T04:06:31.881Z,19.55
2018-08-14T04:08:25.033Z,19.58
2018-08-14T04:09:25.038Z,19.54
2018-08-14T04:11:17.979Z,19.58
2018-08-14T04:12:17.973Z,19.71
2018-08-14T04:14:10.893Z,19.71
2018-08-14T04:15:10.916Z,19.68
2018-08-14T04:17:03.997Z,19.71
2018-08-14T04:18:03.998Z,19.65
2018-08-14T04:19:56.915Z,19.63
2018-08-14T04:20:56.935Z,19.71
2018-08-14T04:22:49.872Z,19.56
2018-08-14T04:23:49.879Z,19.66
2018-08-14T04:25:42.789Z,19.71
2018-08-14T04:26:42.832Z,19.66
2018-08-14T04:28:35.781Z,19.71
2018-08-14T04:29:35.744Z,19.73
2018-08-14T04:31:28.847Z,19.69
2018-08-14T04:32:28.869Z,19.74
2018-08-14T04:34:21.801Z,19.77
2018-08-14T04:35:21.805Z,19.69
2018-08-14T04:37:14.734Z,19.81
2018-08-14T04:38:14.736Z,19.86
2018-08-14T04:40:07.647Z,19.77
2018-08-14T04:41:07.672Z,19.74
2018-08-14T04:43:00.603Z,19.74
2018-08-14T04:44:00.604Z,19.73
2018-08-14T04:45:53.562Z,19.65
2018-08-14T04:46:53.539Z,19.62
2018-08-14T04:48:46.474Z,19.65
2018-08-14T04:49:46.476Z,19.69
2018-08-14T04:51:39.388Z,19.69
2018-08-14T04:52:39.413Z,19.65
2018-08-14T04:54:32.344Z,19.68
2018-08-14T04:55:32.345Z,19.66
2018-08-14T04:57:25.454Z,19.63
2018-08-14T04:58:25.458Z,19.66
2018-08-14T05:00:18.391Z,19.69
2018-08-14T05:01:18.389Z,19.73
2018-08-14T05:03:11.337Z,19.71
2018-08-14T05:04:11.331Z,19.68
2018-08-14T05:06:04.235Z,19.74
2018-08-14T05:07:04.259Z,19.80
2018-08-14T05:08:57.240Z,19.71
2018-08-14T05:09:57.193Z,19.73
2018-08-14T05:11:50.105Z,19.76
2018-08-14T05:12:50.126Z,19.86
2018-08-14T05:14:43.180Z,19.86
2018-08-14T05:15:43.064Z,19.83
2018-08-14T05:17:35.997Z,19.83
2018-08-14T05:18:36.007Z,19.88
2018-08-14T05:20:28.915Z,19.80
2018-08-14T05:21:28.933Z,19.92
2018-08-14T05:23:21.866Z,19.95
2018-08-14T05:24:21.869Z,19.91
2018-08-14T05:26:14.789Z,19.99
2018-08-14T05:27:14.811Z,19.99
2018-08-14T05:29:07.752Z,19.96
2018-08-14T05:30:07.751Z,20.01
2018-08-14T05:32:00.664Z,20.01
2018-08-14T05:33:00.691Z,19.96
2018-08-14T05:34:53.621Z,20.05
2018-08-14T05:35:53.626Z,20.01
2018-08-14T05:37:46.551Z,20.01
2018-08-14T05:38:46.556Z,19.95
2018-08-14T05:40:39.466Z,20.03
2018-08-14T05:41:39.489Z,20.02
2018-08-14T05:43:32.534Z,20.03
2018-08-14T05:44:32.425Z,19.99
2018-08-14T05:46:25.343Z,20.08
2018-08-14T05:47:25.369Z,20.14
2018-08-14T05:49:18.307Z,20.01
2018-08-14T05:50:18.308Z,20.01
2018-08-14T05:52:11.217Z,20.11
2018-08-14T05:53:11.248Z,20.01
2018-08-14T05:55:04.172Z,19.98
2018-08-14T05:56:04.176Z,20.03
2018-08-14T05:57:57.108Z,19.96
2018-08-14T05:58:57.115Z,19.96
2018-08-14T06:00:50.029Z,19.88
2018-08-14T06:01:50.146Z,19.87
2018-08-14T06:03:43.486Z,19.88
2018-08-14T06:04:43.490Z,19.91
2018-08-14T06:06:36.399Z,19.96
2018-08-14T06:07:36.424Z,19.96
2018-08-14T06:09:29.356Z,19.96
2018-08-14T06:10:29.359Z,19.96
2018-08-14T06:12:22.271Z,19.87
2018-08-14T06:13:22.294Z,19.83
2018-08-14T06:15:15.234Z,19.51
2018-08-14T06:16:15.255Z,19.59
2018-08-14T06:18:08.171Z,19.51
2018-08-14T06:19:08.170Z,19.50
2018-08-14T06:21:01.110Z,19.51
2018-08-14T06:22:01.113Z,19.56
2018-08-14T06:23:54.081Z,19.61
2018-08-14T06:24:54.041Z,19.68
2018-08-14T06:26:46.954Z,19.66
2018-08-14T06:27:46.977Z,19.68
2018-08-14T06:29:40.401Z,19.87
2018-08-14T06:30:40.405Z,19.96
2018-08-14T06:32:33.326Z,20.16
2018-08-14T06:33:33.351Z,20.16
2018-08-14T06:35:26.527Z,20.32
2018-08-14T06:36:26.515Z,20.21
2018-08-14T06:38:19.448Z,20.36
2018-08-14T06:39:19.451Z,20.42
2018-08-14T06:41:12.421Z,20.38
2018-08-14T06:42:12.395Z,20.42
2018-08-14T06:44:05.324Z,20.38
2018-08-14T06:45:05.324Z,20.42
2018-08-14T06:46:58.235Z,20.51
2018-08-14T06:47:58.270Z,20.47
2018-08-14T06:49:51.249Z,20.48
2018-08-14T06:50:51.198Z,20.48
2018-08-14T06:52:44.111Z,20.47
2018-08-14T06:53:44.138Z,20.54
2018-08-14T06:55:37.068Z,20.55
2018-08-14T06:56:37.073Z,20.57
2018-08-14T06:58:30.005Z,20.54
2018-08-14T06:59:30.010Z,20.52
2018-08-14T07:01:22.920Z,20.48
2018-08-14T07:02:22.943Z,20.52
2018-08-14T07:04:15.879Z,20.59
2018-08-14T07:05:15.945Z,20.52
2018-08-14T07:07:08.810Z,20.61
2018-08-14T07:08:08.828Z,20.43
2018-08-14T07:10:01.760Z,20.43
2018-08-14T07:11:01.762Z,20.38
2018-08-14T07:12:54.676Z,20.43
2018-08-14T07:13:54.706Z,20.43
2018-08-14T07:15:47.643Z,20.59
2018-08-14T07:16:47.644Z,20.73
2018-08-14T07:18:40.576Z,20.89
2018-08-14T07:19:40.581Z,20.99
2018-08-14T07:21:33.499Z,21.04
2018-08-14T07:22:33.526Z,21.06
2018-08-14T07:24:26.457Z,21.24
2018-08-14T07:25:26.462Z,21.16
2018-08-14T07:27:19.377Z,21.29
2018-08-14T07:28:19.464Z,21.27
2018-08-14T07:30:12.342Z,21.37
2018-08-14T07:31:12.348Z,21.40
2018-08-14T07:33:05.470Z,21.43
2018-08-14T07:34:05.494Z,21.29
2018-08-14T07:35:58.428Z,21.35
2018-08-14T07:36:58.436Z,21.37
2018-08-14T07:38:51.380Z,21.56
2018-08-14T07:39:51.386Z,21.56
2018-08-14T07:41:44.317Z,21.52
2018-08-14T07:42:44.340Z,21.59
2018-08-14T07:44:37.280Z,21.53
2018-08-14T07:45:37.286Z,21.58
2018-08-14T07:47:30.200Z,21.47
2018-08-14T07:48:30.233Z,21.43
2018-08-14T07:50:23.161Z,21.38
2018-08-14T07:51:23.172Z,21.25
2018-08-14T07:53:16.082Z,21.58
2018-08-14T07:54:16.107Z,21.59
2018-08-14T07:56:09.043Z,21.80
2018-08-14T07:57:09.052Z,21.71
2018-08-14T07:59:01.984Z,21.80
2018-08-14T08:00:01.995Z,21.90
2018-08-14T08:01:55.116Z,22.00
2018-08-14T08:02:55.140Z,22.14
2018-08-14T08:04:48.076Z,22.17
2018-08-14T08:05:48.086Z,22.22
2018-08-14T08:07:41.012Z,22.33
2018-08-14T08:08:41.028Z,22.40
2018-08-14T08:10:34.128Z,22.47
2018-08-14T08:11:34.118Z,22.45
2018-08-14T08:13:27.035Z,22.28
2018-08-14T08:14:27.061Z,22.25
2018-08-14T08:16:19.997Z,22.20
2018-08-14T08:17:20.007Z,22.10
2018-08-14T08:19:12.943Z,21.98
2018-08-14T08:20:12.951Z,22.00
2018-08-14T08:22:05.870Z,21.67
2018-08-14T08:23:05.897Z,21.56
2018-08-14T08:24:58.841Z,21.31
2018-08-14T08:25:58.849Z,21.42
2018-08-14T08:27:51.769Z,21.21
2018-08-14T08:28:51.793Z,21.27
2018-08-14T08:30:44.880Z,21.27
2018-08-14T08:31:44.884Z,21.25
2018-08-14T08:33:37.802Z,21.27
2018-08-14T08:34:37.857Z,21.43
2018-08-14T08:36:30.769Z,21.25
2018-08-14T08:37:30.775Z,21.17
2018-08-14T08:39:23.721Z,21.22
2018-08-14T08:40:23.721Z,21.27
2018-08-14T08:42:16.639Z,21.29
2018-08-14T08:43:16.668Z,21.25
2018-08-14T08:45:09.755Z,21.31
2018-08-14T08:46:09.755Z,21.27
2018-08-14T08:48:02.669Z,21.31
2018-08-14T08:49:02.697Z,21.28
2018-08-14T08:50:55.675Z,21.35
2018-08-14T08:51:55.639Z,21.16
2018-08-14T08:53:48.547Z,21.12
2018-08-14T08:54:48.572Z,20.99
2018-08-14T08:56:41.508Z,21.04
2018-08-14T08:57:41.513Z,20.97
2018-08-14T08:59:34.447Z,21.07
2018-08-14T09:00:34.461Z,21.12
2018-08-14T09:02:27.578Z,21.22
2018-08-14T09:03:27.599Z,21.27
2018-08-14T09:05:20.741Z,21.25
2018-08-14T09:06:20.747Z,21.27
2018-08-14T09:08:13.663Z,21.27
2018-08-14T09:09:13.749Z,21.50
2018-08-14T09:11:06.624Z,21.58
2018-08-14T09:12:06.637Z,21.77
2018-08-14T09:13:59.548Z,21.92
2018-08-14T09:14:59.576Z,21.98
2018-08-14T09:16:52.507Z,22.22
2018-08-14T09:17:52.519Z,22.22
2018-08-14T09:19:45.616Z,22.20
2018-08-14T09:20:45.618Z,22.31
2018-08-14T09:22:38.542Z,22.60
2018-08-14T09:23:38.569Z,22.67
2018-08-14T09:25:31.503Z,22.47
2018-08-14T09:26:31.512Z,22.30
2018-08-14T09:28:24.433Z,22.51
2018-08-14T09:29:24.457Z,22.52
2018-08-14T09:31:17.405Z,22.60
2018-08-14T09:32:17.406Z,22.76
2018-08-14T09:34:10.369Z,22.79
2018-08-14T09:35:10.359Z,22.77
2018-08-14T09:37:03.338Z,22.85
2018-08-14T09:38:03.305Z,22.75
2018-08-14T09:39:56.244Z,22.51
2018-08-14T09:40:56.250Z,22.51
2018-08-14T09:42:49.210Z,22.67
2018-08-14T09:43:49.194Z,22.86
2018-08-14T09:45:42.129Z,22.92
2018-08-14T09:46:42.138Z,23.01
2018-08-14T09:48:35.059Z,23.15
2018-08-14T09:49:35.082Z,23.23
2018-08-14T09:51:28.207Z,23.43
2018-08-14T09:52:28.214Z,23.47
2018-08-14T09:54:21.358Z,23.55
2018-08-14T09:55:21.372Z,23.54
2018-08-14T09:57:14.325Z,23.55
2018-08-14T09:58:14.320Z,23.57
2018-08-14T10:00:07.267Z,23.90
2018-08-14T10:01:07.267Z,24.00
2018-08-14T10:03:00.192Z,24.31
2018-08-14T10:04:00.214Z,24.40
2018-08-14T10:05:53.392Z,24.43
2018-08-14T10:06:53.400Z,24.47
2018-08-14T10:08:46.840Z,24.64
2018-08-14T10:09:46.856Z,24.71
2018-08-14T10:11:39.797Z,24.98
2018-08-14T10:12:39.799Z,25.03
2018-08-14T10:14:32.718Z,25.06
2018-08-14T10:15:32.744Z,25.06
2018-08-14T10:17:25.694Z,25.18
2018-08-14T10:18:25.704Z,25.02
2018-08-14T10:20:18.623Z,25.06
2018-08-14T10:21:18.654Z,25.06
2018-08-14T10:23:11.595Z,25.00
2018-08-14T10:24:11.604Z,25.09
2018-08-14T10:26:04.546Z,25.24
2018-08-14T10:27:04.553Z,25.32
2018-08-14T10:28:57.495Z,25.54
2018-08-14T10:29:57.503Z,25.51
2018-08-14T10:31:50.451Z,25.17
2018-08-14T10:32:50.452Z,25.08
2018-08-14T10:34:43.378Z,24.95
2018-08-14T10:35:43.405Z,25.10
2018-08-14T10:37:36.355Z,24.95
2018-08-14T10:38:36.360Z,24.78
2018-08-14T10:40:29.282Z,25.08
2018-08-14T10:41:29.313Z,25.18
2018-08-14T10:43:22.364Z,25.39
2018-08-14T10:44:22.257Z,25.23
2018-08-14T10:46:15.215Z,25.08
2018-08-14T10:47:15.207Z,24.76
2018-08-14T10:49:08.132Z,24.43
2018-08-14T10:50:08.164Z,24.42
2018-08-14T10:52:01.098Z,23.87
2018-08-14T10:53:01.105Z,23.65
2018-08-14T10:54:54.027Z,23.31
2018-08-14T10:55:54.054Z,23.42
2018-08-14T10:57:47.002Z,23.40
2018-08-14T10:58:47.050Z,23.43
2018-08-14T11:00:39.924Z,23.40
2018-08-14T11:01:39.950Z,23.32
2018-08-14T11:03:32.887Z,23.60
2018-08-14T11:04:32.954Z,23.65
2018-08-14T11:06:25.892Z,23.70
2018-08-14T11:07:25.869Z,23.73
2018-08-14T11:09:18.761Z,23.79
2018-08-14T11:10:18.788Z,23.73
2018-08-14T11:12:11.731Z,23.79
2018-08-14T11:13:11.737Z,23.72
2018-08-14T11:15:04.659Z,23.58
2018-08-14T11:16:04.686Z,23.28
2018-08-14T11:17:57.623Z,22.95
2018-08-14T11:18:57.633Z,22.68
2018-08-14T11:20:50.557Z,22.52
2018-08-14T11:21:50.578Z,22.45
2018-08-14T11:23:43.514Z,22.33
2018-08-14T11:24:43.533Z,22.28
2018-08-14T11:26:36.459Z,22.37
2018-08-14T11:27:36.467Z,22.18
2018-08-14T11:29:29.384Z,22.17
2018-08-14T11:30:31.934Z,22.15
2018-08-14T11:32:22.417Z,22.14
2018-08-14T11:33:22.353Z,22.06
2018-08-14T11:35:15.269Z,22.24
2018-08-14T11:36:15.294Z,22.27
2018-08-14T11:38:08.251Z,22.46
2018-08-14T11:39:08.260Z,22.54
2018-08-14T11:41:01.668Z,22.45
2018-08-14T11:42:01.698Z,22.67
2018-08-14T11:43:55.128Z,22.80
2018-08-14T11:44:55.130Z,22.86
2018-08-14T11:46:48.078Z,22.86
2018-08-14T11:47:48.079Z,22.80
2018-08-14T11:49:41.000Z,22.47
2018-08-14T11:50:41.026Z,22.30
2018-08-14T11:52:34.132Z,21.98
2018-08-14T11:53:34.135Z,22.00
2018-08-14T11:55:27.052Z,22.14
2018-08-14T11:56:27.074Z,22.09
2018-08-14T11:58:20.013Z,22.07
2018-08-14T11:59:20.017Z,22.17
2018-08-14T12:01:13.077Z,22.24
2018-08-14T12:02:13.104Z,22.24
2018-08-14T12:04:06.039Z,22.25
2018-08-14T12:05:06.051Z,22.31
2018-08-14T12:06:59.002Z,22.31
2018-08-14T12:07:58.988Z,22.18
2018-08-14T12:09:52.139Z,22.30
2018-08-14T12:10:52.231Z,22.25
2018-08-14T12:12:45.129Z,22.30
2018-08-14T12:13:45.109Z,22.37
2018-08-14T12:15:38.025Z,22.60
2018-08-14T12:16:38.052Z,22.51
2018-08-14T12:18:30.993Z,22.68
2018-08-14T12:19:30.995Z,22.94
2018-08-14T12:21:23.921Z,23.10
2018-08-14T12:22:23.943Z,23.04
2018-08-14T12:24:16.890Z,23.33
2018-08-14T12:25:16.897Z,23.40
2018-08-14T12:27:09.871Z,23.50
2018-08-14T12:28:09.844Z,23.47
2018-08-14T12:30:02.920Z,23.51
2018-08-14T12:31:02.945Z,23.53
2018-08-14T12:32:55.883Z,23.60
2018-08-14T12:33:55.893Z,23.70
2018-08-14T12:35:48.805Z,23.55
2018-08-14T12:36:48.833Z,23.63
2018-08-14T12:38:41.780Z,23.69
2018-08-14T12:39:41.785Z,23.78
2018-08-14T12:41:34.716Z,23.87
2018-08-14T12:42:34.733Z,23.98
2018-08-14T12:44:27.670Z,24.09
2018-08-14T12:45:27.679Z,24.18
2018-08-14T12:47:20.624Z,24.10
2018-08-14T12:48:20.627Z,24.20
2018-08-14T12:50:13.553Z,24.21
2018-08-14T12:51:13.582Z,24.20
2018-08-14T12:53:06.523Z,24.20
2018-08-14T12:54:06.529Z,24.28
2018-08-14T12:55:59.462Z,24.42
2018-08-14T12:56:59.491Z,24.46
2018-08-14T12:58:52.580Z,24.60
2018-08-14T12:59:52.586Z,24.60
2018-08-14T13:01:45.510Z,24.71
2018-08-14T13:02:45.540Z,24.73
2018-08-14T13:04:38.477Z,24.76
2018-08-14T13:05:38.483Z,24.87
2018-08-14T13:07:31.431Z,24.84
2018-08-14T13:08:31.433Z,25.02
2018-08-14T13:10:24.356Z,25.06
2018-08-14T13:11:24.382Z,25.00
2018-08-14T13:13:17.325Z,24.93
2018-08-14T13:14:17.333Z,24.95
2018-08-14T13:16:10.396Z,25.14
2018-08-14T13:17:10.423Z,25.17
2018-08-14T13:19:03.365Z,25.18
2018-08-14T13:20:03.372Z,25.21
2018-08-14T13:21:56.292Z,25.17
2018-08-14T13:22:56.318Z,25.24
2018-08-14T13:24:49.472Z,25.06
2018-08-14T13:25:49.479Z,25.06
2018-08-14T13:27:42.422Z,24.90
2018-08-14T13:28:42.427Z,24.95
2018-08-14T13:30:35.349Z,25.08
2018-08-14T13:31:35.376Z,25.08
2018-08-14T13:33:28.315Z,25.00
2018-08-14T13:34:28.322Z,24.90
2018-08-14T13:36:21.250Z,24.93
2018-08-14T13:37:21.274Z,24.95
2018-08-14T13:39:14.356Z,25.05
2018-08-14T13:40:14.448Z,25.20
2018-08-14T13:42:07.283Z,25.25
2018-08-14T13:43:07.309Z,25.39
2018-08-14T13:45:00.457Z,25.20
2018-08-14T13:46:00.465Z,25.08
2018-08-14T13:47:53.450Z,25.36
2018-08-14T13:48:53.413Z,25.47
2018-08-14T13:50:46.333Z,25.72
2018-08-14T13:51:46.362Z,25.70
2018-08-14T13:53:39.375Z,25.97
2018-08-14T13:54:39.314Z,26.07
2018-08-14T13:56:32.237Z,26.09
2018-08-14T13:57:32.261Z,26.20
2018-08-14T13:59:25.441Z,26.43
2018-08-14T14:00:25.445Z,26.45
2018-08-14T14:02:18.368Z,26.45
2018-08-14T14:03:18.397Z,26.40
2018-08-14T14:05:11.388Z,26.21
2018-08-14T14:06:11.350Z,26.12
2018-08-14T14:08:04.300Z,26.09
2018-08-14T14:09:04.302Z,26.13
2018-08-14T14:10:57.224Z,26.07
2018-08-14T14:11:57.254Z,25.91
2018-08-14T14:13:50.194Z,25.64
2018-08-14T14:14:50.202Z,25.72
2018-08-14T14:16:43.124Z,25.38
2018-08-14T14:17:43.155Z,25.33
2018-08-14T14:19:36.094Z,25.38
2018-08-14T14:20:36.103Z,25.61
2018-08-14T14:22:29.025Z,25.67
2018-08-14T14:23:29.055Z,25.64
2018-08-14T14:25:21.996Z,25.91
2018-08-14T14:26:22.003Z,25.94
2018-08-14T14:28:14.961Z,25.82
2018-08-14T14:29:14.952Z,25.82
2018-08-14T14:31:07.872Z,25.61
2018-08-14T14:32:07.901Z,25.57
2018-08-14T14:34:00.841Z,25.57
2018-08-14T14:35:00.851Z,25.54
2018-08-14T14:36:53.772Z,25.55
2018-08-14T14:37:53.798Z,25.55
2018-08-14T14:39:46.901Z,25.62
2018-08-14T14:40:46.909Z,25.69
2018-08-14T14:42:39.830Z,25.62
2018-08-14T14:43:39.856Z,25.70
2018-08-14T14:45:32.805Z,25.72
2018-08-14T14:46:32.808Z,25.67
2018-08-14T14:48:25.760Z,25.52
2018-08-14T14:49:25.755Z,25.57
2018-08-14T14:51:18.677Z,25.43
2018-08-14T14:52:18.705Z,25.28
2018-08-14T14:54:11.645Z,25.39
2018-08-14T14:55:11.649Z,25.39
2018-08-14T14:57:04.575Z,25.46
2018-08-14T14:58:04.605Z,25.51
2018-08-14T14:59:57.694Z,25.61
2018-08-14T15:00:57.702Z,25.67
2018-08-14T15:02:50.630Z,25.55
2018-08-14T15:03:50.658Z,25.54
2018-08-14T15:05:43.601Z,25.52
2018-08-14T15:06:43.617Z,25.45
2018-08-14T15:08:36.725Z,25.51
2018-08-14T15:09:36.750Z,25.52
2018-08-14T15:11:29.696Z,25.43
2018-08-14T15:12:29.701Z,25.51
2018-08-14T15:14:22.640Z,25.61
2018-08-14T15:15:22.647Z,25.64
2018-08-14T15:17:15.567Z,25.80
2018-08-14T15:18:15.596Z,25.83
2018-08-14T15:20:08.535Z,25.62
2018-08-14T15:21:08.542Z,25.57
2018-08-14T15:23:01.459Z,25.46
2018-08-14T15:24:01.487Z,25.50
2018-08-14T15:25:54.429Z,25.54
2018-08-14T15:26:54.439Z,25.36
2018-08-14T15:28:47.358Z,25.20
2018-08-14T15:29:47.391Z,25.28
2018-08-14T15:31:40.478Z,25.32
2018-08-14T15:32:40.482Z,25.28
2018-08-14T15:34:33.423Z,25.28
2018-08-14T15:35:33.436Z,25.40
2018-08-14T15:37:26.349Z,25.35
2018-08-14T15:38:26.378Z,25.30
2018-08-14T15:40:19.315Z,25.39
2018-08-14T15:41:19.324Z,25.27
2018-08-14T15:43:12.243Z,25.47
2018-08-14T15:44:12.270Z,25.51
2018-08-14T15:46:05.218Z,25.72
2018-08-14T15:47:05.219Z,25.77
2018-08-14T15:48:58.138Z,25.77
2018-08-14T15:49:58.168Z,25.64
2018-08-14T15:51:51.105Z,25.54
2018-08-14T15:52:51.112Z,25.45
2018-08-14T15:54:44.560Z,25.33
2018-08-14T15:55:44.563Z,25.35
2018-08-14T15:57:37.498Z,25.35
2018-08-14T15:58:37.520Z,25.24
2018-08-14T16:00:30.475Z,25.30
2018-08-14T16:01:30.467Z,25.18
2018-08-14T16:03:23.383Z,25.23
2018-08-14T16:04:23.413Z,25.35
2018-08-14T16:06:16.349Z,25.39
2018-08-14T16:07:16.358Z,25.35
2018-08-14T16:09:09.272Z,25.25
2018-08-14T16:10:09.304Z,25.06
2018-08-14T16:12:02.241Z,25.15
2018-08-14T16:13:02.252Z,25.10
2018-08-14T16:14:55.193Z,25.21
2018-08-14T16:15:55.195Z,25.23
2018-08-14T16:17:48.111Z,25.27
2018-08-14T16:18:48.141Z,25.15
2018-08-14T16:20:41.254Z,25.15
2018-08-14T16:21:41.229Z,25.08
2018-08-14T16:23:34.343Z,24.88
2018-08-14T16:24:34.371Z,24.93
2018-08-14T16:26:27.311Z,24.81
2018-08-14T16:27:27.376Z,24.88
2018-08-14T16:29:20.235Z,24.96
2018-08-14T16:30:20.266Z,24.91
2018-08-14T16:32:13.215Z,25.06
2018-08-14T16:33:13.222Z,25.14
2018-08-14T16:35:06.386Z,25.24
2018-08-14T16:36:06.399Z,25.28
2018-08-14T16:37:59.312Z,25.21
2018-08-14T16:38:59.340Z,25.17
2018-08-14T16:40:52.321Z,25.17
2018-08-14T16:41:52.285Z,25.21
2018-08-14T16:43:45.199Z,25.17
2018-08-14T16:44:45.224Z,25.23
2018-08-14T16:46:38.232Z,25.27
2018-08-14T16:47:38.175Z,25.15
2018-08-14T16:49:31.095Z,25.17
2018-08-14T16:50:31.121Z,25.14
2018-08-14T16:52:24.057Z,25.20
2018-08-14T16:53:24.066Z,25.18
2018-08-14T16:55:17.012Z,25.08
2018-08-14T16:56:17.015Z,25.08
2018-08-14T16:58:09.934Z,25.05
2018-08-14T16:59:09.962Z,25.00
2018-08-14T17:01:02.901Z,25.02
2018-08-14T17:02:02.909Z,24.91
2018-08-14T17:03:55.833Z,24.90
2018-08-14T17:04:55.852Z,24.93
2018-08-14T17:06:48.790Z,24.95
2018-08-14T17:07:48.928Z,24.90
2018-08-14T17:09:41.712Z,25.05
2018-08-14T17:10:41.744Z,25.10
2018-08-14T17:12:34.677Z,25.06
2018-08-14T17:13:34.686Z,24.93
2018-08-14T17:15:27.621Z,24.96
2018-08-14T17:16:27.630Z,24.93
2018-08-14T17:18:20.544Z,24.71
2018-08-14T17:19:20.572Z,24.71
2018-08-14T17:21:13.507Z,24.60
2018-08-14T17:22:13.517Z,24.52
2018-08-14T17:24:06.433Z,24.47
2018-08-14T17:25:06.460Z,24.37
2018-08-14T17:26:59.397Z,24.45
2018-08-14T17:27:59.424Z,24.40
2018-08-14T17:29:52.324Z,24.53
2018-08-14T17:30:52.350Z,24.49
2018-08-14T17:32:45.364Z,24.61
2018-08-14T17:33:45.300Z,24.60
2018-08-14T17:35:38.237Z,24.52
2018-08-14T17:36:38.248Z,24.49
2018-08-14T17:38:31.163Z,24.42
2018-08-14T17:39:31.191Z,24.42
2018-08-14T17:41:24.127Z,24.42
2018-08-14T17:42:24.134Z,24.34
2018-08-14T17:44:17.053Z,24.27
2018-08-14T17:45:17.088Z,24.37
2018-08-14T17:47:10.014Z,24.34
2018-08-14T17:48:10.024Z,24.46
2018-08-14T17:50:02.942Z,24.37
2018-08-14T17:51:02.967Z,24.39
2018-08-14T17:52:55.906Z,24.37
2018-08-14T17:53:55.915Z,24.40
2018-08-14T17:55:48.979Z,24.40
2018-08-14T17:56:48.987Z,24.46
2018-08-14T17:58:41.903Z,24.46
2018-08-14T17:59:41.932Z,24.42
2018-08-14T18:01:34.868Z,24.39
2018-08-14T18:02:34.877Z,24.35
2018-08-14T18:04:27.790Z,24.18
2018-08-14T18:05:27.819Z,24.12
2018-08-14T18:07:20.753Z,24.08
2018-08-14T18:08:20.770Z,23.97
2018-08-14T18:10:13.677Z,23.87
2018-08-14T18:11:13.707Z,23.88
2018-08-14T18:13:06.638Z,23.87
2018-08-14T18:14:06.645Z,23.84
2018-08-14T18:15:59.588Z,23.87
2018-08-14T18:16:59.689Z,23.91
2018-08-14T18:18:52.546Z,23.90
2018-08-14T18:19:52.579Z,23.79
2018-08-14T18:21:45.566Z,23.80
2018-08-14T18:22:45.515Z,23.79
2018-08-14T18:24:38.521Z,23.78
2018-08-14T18:25:38.591Z,23.85
2018-08-14T18:27:32.491Z,23.87
2018-08-14T18:28:32.497Z,23.84
2018-08-14T18:30:25.437Z,23.76
2018-08-14T18:31:25.482Z,23.70
2018-08-14T18:33:18.527Z,23.78